x

Port Stanley (45132) Wave Buoy

2:00pm - Thu 31st Jul 2014 All times are CDT. -5 hours from GMT.

  • Sig Wave height 1.6ft
  • Peak Period 4s
  • Wind
    16mph, 18mph gusts
  • Sea Temp 69°f
  • Air Temp 68°f
  • Sea Pressure 1017.1mb
  • Port Stanley
  • Port Stanley

More Historic Weather Station data

Upgrade to MSW Pro to gain access to the past 30 days of data for over 8000 Wavebouys and Weather Stations around the globe.

Join Pro

Comparision Forecast

View Surf forecast
   
Thu 07/31 2:00pm 1.6ft 4s 16 18 mph 1017.1mb 69f 68f
1:00pm 1.3ft 4s 13
mph
1017.2mb 68f 67f
12:00pm 1.6ft 4s 11 13 mph 1017.1mb 68f 67f
11:00am 1.6ft 4s 11
mph
1016.8mb 68f 66f
10:00am 1.6ft 5s 11 13 mph 1016.6mb 68f 65f
9:00am 1.6ft 4s 11 13 mph 1016.3mb 68f 64f
8:00am 1.6ft 4s 13 16 mph 1016.2mb 68f 64f
7:00am 1.6ft 4s 9 11 mph 1015.6mb 67f 65f
6:00am 1.6ft 4s 4 7 mph 1015.6mb 67f 64f
5:00am 1ft 3s 7
mph
1015.1mb 67f 65f
4:00am 1ft 3s 11
mph
1014.6mb 67f 66f
3:00am 1ft 3s 11 13 mph 1014.4mb 68f 66f
2:00am 0.7ft 3s 11 13 mph 1014.5mb 67f 66f
1:00am 0.7ft 3s 2
mph
1014.8mb 68f 66f
12:00am 1ft 3s 7 9 mph 1014.6mb 68f 65f
Wed 07/30 11:00pm 1ft 4s 7 9 mph 1015.1mb 68f 65f
10:00pm 1ft 4s 11 25 mph 1015.4mb 68f 66f
9:00pm 1.3ft 4s 4 7 mph 1015.5mb 68f 68f
8:00pm 1.3ft 3s 7
mph
1015.1mb 68f 68f
7:00pm 1.3ft 4s 4
mph
1015.2mb 68f 68f
6:00pm 1.3ft 4s 7 9 mph 1015mb 68f 68f
5:00pm 1.3ft 4s 9 11 mph 1014.7mb 69f 68f
4:00pm 1.3ft 4s 11 13 mph 1014.8mb 69f 68f
3:00pm 1.3ft 4s 13 16 mph 1014.7mb 69f 67f
2:00pm 1.3ft 4s 11 13 mph 1014.8mb 69f 67f
1:00pm 1.3ft 4s 9 13 mph 1015.1mb 68f 67f
12:00pm 1.3ft 4s 9 11 mph 1015.4mb 68f 66f
11:00am 1.3ft 4s 9
mph
1015.5mb 68f 65f
10:00am 1.3ft 4s 7 9 mph 1015.4mb 68f 64f
9:00am 1.3ft 4s 4
mph
1015.2mb 67f 64f
8:00am 1.6ft 5s 4 7 mph 1015.5mb 67f 63f
7:00am 2ft 5s 9
mph
1014.8mb 67f 64f
6:00am 2.5ft 5s 11 13 mph 1014.3mb 67f 64f
5:00am 2.5ft 5s 11 13 mph 1013.9mb 67f 64f
4:00am 3ft 5s 11 13 mph 1013.5mb 67f 65f
3:00am 2.5ft 5s 13
mph
1013.5mb 67f 66f
2:00am 2.5ft 5s 13 16 mph 1013.1mb 67f 67f
1:00am 3ft 5s 16 18 mph 1013.5mb 67f 68f
12:00am 3ft 5s 16 20 mph 1013.9mb 67f 68f
Tue 07/29 11:00pm 3ft 4s 18 22 mph 1013.5mb 67f 68f
10:00pm 2.5ft 4s 18 22 mph 1013.7mb 67f 68f
9:00pm 2.5ft 4s 18 20 mph 1014.1mb 67f 68f
8:00pm 3ft 4s 16 20 mph 1013.9mb 67f 68f
7:00pm 3ft 5s 18 22 mph 1014.1mb 67f 68f
6:00pm 3ft 4s 18 20 mph 1014.2mb 67f 67f
5:00pm 2.5ft 4s 18 22 mph 1014.3mb 68f 66f
4:00pm 2ft 4s 20 22 mph 1014.3mb 68f 66f
3:00pm 1.6ft 3s 18 22 mph 1014.4mb 68f 65f
2:00pm 1ft 3s 16 20 mph 1014.5mb 68f 65f
1:00pm 0.7ft 2s 13 16 mph 1014.8mb 68f 65f
12:00pm 0.7ft 2s 9 11 mph 1015.2mb 68f 64f
11:00am 0.7ft 3s 9 11 mph 1015.6mb 68f 63f
10:00am 1ft 3s 9 11 mph 1015.4mb 67f 62f
9:00am 1.3ft 3s 9 11 mph 1015.2mb 67f 62f
8:00am 1.3ft 3s 13 16 mph 1014.8mb 67f 61f
7:00am 1.3ft 3s 13 16 mph 1014.4mb 67f 61f
6:00am 1.3ft 3s 13 16 mph 1014.1mb 67f 61f
5:00am  -   -  13
mph
- - -
4:00am 1.3ft 4s 16
mph
1013.5mb 67f 60f
3:00am 1.3ft 3s 16 18 mph 1013.2mb 67f 60f
2:00am 1.6ft 3s 16 20 mph 1013.4mb 67f 60f
1:00am 1.6ft 3s 18
mph
1013.4mb 67f 61f
12:00am 1.3ft 3s 20 22 mph 1013.1mb 67f 61f
Mon 07/28 11:00pm 1.3ft 3s 18 20 mph 1013.5mb 67f 60f
10:00pm 1.6ft 3s 16 20 mph 1013.9mb 67f 60f
9:00pm 2ft 4s 18 20 mph 1013.8mb 68f 60f
8:00pm 2.5ft 4s 20 25 mph 1013.3mb 68f 60f
7:00pm 3ft 4s 22 27 mph 1012.9mb 68f 60f
6:00pm 3.5ft 4s 27 31 mph 1012.5mb 68f 60f
5:00pm 4ft 4s 25 29 mph 1012.2mb 69f 61f
4:00pm  -   -  27
mph
- - -
3:00pm  -   -  27
mph
1010.8mb - 64f
2:00pm 3.5ft 4s 27 34 mph 1009.7mb 69f 65f
1:00pm 2.5ft 4s 25 29 mph 1009.2mb 69f 66f
12:00pm 1.6ft 4s 22 27 mph 1008.9mb 69f 66f
11:00am 2.5ft 4s 18 22 mph 1008.9mb 69f 64f
10:00am 3ft 4s 22 27 mph 1007.7mb 69f 63f
9:00am 2.5ft 4s 25 29 mph 1006.8mb 69f 63f
8:00am  -   -  22
mph
- - -
7:00am 2.5ft 4s 25 29 mph 1004.5mb 70f 64f
6:00am 2ft 3s 20 25 mph 1003.6mb 70f 65f
5:00am 1.6ft 4s 20 25 mph 1003.1mb 70f 65f
4:00am 1.6ft 4s 18 22 mph 1002.9mb 70f 65f
3:00am 1.6ft 4s 18 20 mph 1002.8mb 70f 65f
2:00am 1.6ft 4s 16 18 mph 1002.7mb 70f 66f
1:00am 1.3ft 3s 16 18 mph 1002.5mb 71f 66f
12:00am 1.3ft 3s 13 20 mph 1003.4mb 71f 66f
Sun 07/27 11:00pm 1.6ft 3s 9
mph
1002.7mb 70f 67f
10:00pm 1.6ft 4s 18 22 mph 1001.9mb 71f 67f
9:00pm 2.5ft 4s 13 18 mph 1004.1mb 71f 66f